createdAt,value
2023-05-20T00:00:56.211Z,0.00
2023-05-20T00:01:56.148Z,0.00
2023-05-20T00:02:56.175Z,0.00
2023-05-20T00:03:56.199Z,0.00
2023-05-20T00:04:56.213Z,0.00
2023-05-20T00:05:56.033Z,0.00
2023-05-20T00:06:56.068Z,0.00
2023-05-20T00:07:56.075Z,0.00
2023-05-20T00:08:56.077Z,0.00
2023-05-20T00:09:55.964Z,0.00
2023-05-20T00:10:55.973Z,0.00
2023-05-20T00:11:55.902Z,0.00
2023-05-20T00:12:55.930Z,0.00
2023-05-20T00:13:55.891Z,0.00
2023-05-20T00:14:56.113Z,0.00
2023-05-20T00:15:55.901Z,0.00
2023-05-20T00:16:55.815Z,0.00
2023-05-20T00:17:55.868Z,0.00
2023-05-20T00:18:55.752Z,0.00
2023-05-20T00:19:55.832Z,0.00
2023-05-20T00:20:55.718Z,0.00
2023-05-20T00:21:55.753Z,0.00
2023-05-20T00:22:55.679Z,0.00
2023-05-20T00:23:55.636Z,0.00
2023-05-20T00:24:55.669Z,0.00
2023-05-20T00:25:56.992Z,0.00
2023-05-20T00:26:55.682Z,0.00
2023-05-20T00:27:55.558Z,0.00
2023-05-20T00:28:55.529Z,0.00
2023-05-20T00:29:55.606Z,0.00
2023-05-20T00:30:55.502Z,0.00
2023-05-20T00:31:55.574Z,0.00
2023-05-20T00:32:55.480Z,0.00
2023-05-20T00:33:55.410Z,0.00
2023-05-20T00:34:55.390Z,0.00
2023-05-20T00:35:55.478Z,0.00
2023-05-20T00:36:55.339Z,0.00
2023-05-20T00:37:55.383Z,0.00
2023-05-20T00:38:55.324Z,0.00
2023-05-20T00:39:55.372Z,0.00
2023-05-20T00:40:55.257Z,0.00
2023-05-20T00:41:55.443Z,0.00
2023-05-20T00:42:55.219Z,0.00
2023-05-20T00:43:55.380Z,0.00
2023-05-20T00:44:55.181Z,0.00
2023-05-20T00:45:55.210Z,0.00
2023-05-20T00:46:55.123Z,0.00
2023-05-20T00:47:55.253Z,0.00
2023-05-20T00:48:55.074Z,0.00
2023-05-20T00:49:55.058Z,0.00
2023-05-20T00:50:55.027Z,0.00
2023-05-20T00:51:55.040Z,0.00
2023-05-20T00:52:54.991Z,0.00
2023-05-20T00:53:55.057Z,0.00
2023-05-20T00:54:54.955Z,0.00
2023-05-20T00:55:54.966Z,0.00
2023-05-20T00:56:54.890Z,0.00
2023-05-20T00:57:54.979Z,0.00
2023-05-20T00:58:54.856Z,0.00
2023-05-20T00:59:54.888Z,0.00
2023-05-20T01:00:54.799Z,0.00
2023-05-20T01:01:54.823Z,0.00
2023-05-20T01:02:54.879Z,0.00
2023-05-20T01:03:54.876Z,0.00
2023-05-20T01:04:54.704Z,0.00
2023-05-20T01:05:54.706Z,0.00
2023-05-20T01:06:54.661Z,0.00
2023-05-20T01:07:54.737Z,0.00
2023-05-20T01:08:54.618Z,0.00
2023-05-20T01:09:54.651Z,0.00
2023-05-20T01:10:54.584Z,0.00
2023-05-20T01:11:54.560Z,0.00
2023-05-20T01:12:54.531Z,0.00
2023-05-20T01:13:54.577Z,0.00
2023-05-20T01:14:54.479Z,0.00
2023-05-20T01:15:54.505Z,0.00
2023-05-20T01:16:54.439Z,0.00
2023-05-20T01:17:54.531Z,0.00
2023-05-20T01:18:54.424Z,0.00
2023-05-20T01:19:54.425Z,0.00
2023-05-20T01:20:54.342Z,0.00
2023-05-20T01:21:54.337Z,0.00
2023-05-20T01:22:54.311Z,0.00
2023-05-20T01:23:54.373Z,0.00
2023-05-20T01:24:54.252Z,0.00
2023-05-20T01:25:54.268Z,0.00
2023-05-20T01:26:54.269Z,0.00
2023-05-20T01:27:54.202Z,0.00
2023-05-20T01:28:54.176Z,0.00
2023-05-20T01:29:54.137Z,0.00
2023-05-20T01:30:54.249Z,0.00
2023-05-20T01:31:54.131Z,0.00
2023-05-20T01:32:54.182Z,0.00
2023-05-20T01:33:54.043Z,0.00
2023-05-20T01:34:54.125Z,0.00
2023-05-20T01:35:54.008Z,0.00
2023-05-20T01:36:54.029Z,0.00
2023-05-20T01:37:53.970Z,0.00
2023-05-20T01:38:53.941Z,0.00
2023-05-20T01:39:53.907Z,0.00
2023-05-20T01:40:53.958Z,0.00
2023-05-20T01:41:53.865Z,0.00
2023-05-20T01:42:53.857Z,0.00
2023-05-20T01:43:53.819Z,0.00
2023-05-20T01:44:53.893Z,0.00
2023-05-20T01:45:53.784Z,0.00
2023-05-20T01:46:53.810Z,0.00
2023-05-20T01:47:53.808Z,0.00
2023-05-20T01:48:53.813Z,0.00
2023-05-20T01:49:53.682Z,0.00
2023-05-20T01:50:53.800Z,0.00
2023-05-20T01:51:53.632Z,0.00
2023-05-20T01:52:53.742Z,0.00
2023-05-20T01:53:53.588Z,0.00
2023-05-20T01:54:53.690Z,0.00
2023-05-20T01:55:53.554Z,0.00
2023-05-20T01:56:53.569Z,0.00
2023-05-20T01:57:53.509Z,0.00
2023-05-20T01:58:53.473Z,0.00
2023-05-20T01:59:53.455Z,0.00
2023-05-20T02:00:53.555Z,0.00
2023-05-20T02:01:53.441Z,0.00
2023-05-20T02:02:53.524Z,0.00
2023-05-20T02:03:53.372Z,0.00
2023-05-20T02:04:53.418Z,0.00
2023-05-20T02:05:53.382Z,0.00
2023-05-20T02:06:53.333Z,0.00
2023-05-20T02:07:53.297Z,0.00
2023-05-20T02:08:53.344Z,0.00
2023-05-20T02:09:53.220Z,0.00
2023-05-20T02:10:53.258Z,0.00
2023-05-20T02:11:53.176Z,0.00
2023-05-20T02:12:53.272Z,0.00
2023-05-20T02:13:53.131Z,0.00
2023-05-20T02:14:53.119Z,0.00
2023-05-20T02:15:53.192Z,0.00
2023-05-20T02:16:53.184Z,0.00
2023-05-20T02:17:53.117Z,0.00
2023-05-20T02:18:53.164Z,0.00
2023-05-20T02:19:53.004Z,0.00
2023-05-20T02:20:52.971Z,0.00
2023-05-20T02:21:53.030Z,0.00
2023-05-20T02:22:52.936Z,0.00
2023-05-20T02:23:52.942Z,0.00
2023-05-20T02:24:52.878Z,0.00
2023-05-20T02:25:52.970Z,0.00
2023-05-20T02:26:52.838Z,0.00
2023-05-20T02:27:52.870Z,0.00
2023-05-20T02:28:52.800Z,0.00
2023-05-20T02:29:52.858Z,0.00
2023-05-20T02:30:52.733Z,0.00
2023-05-20T02:31:52.797Z,0.00
2023-05-20T02:32:52.734Z,0.00
2023-05-20T02:33:52.809Z,0.00
2023-05-20T02:34:52.650Z,0.00
2023-05-20T02:35:52.627Z,0.00
2023-05-20T02:36:52.609Z,0.00
2023-05-20T02:37:52.655Z,0.00
2023-05-20T02:38:52.558Z,0.00
2023-05-20T02:39:52.549Z,0.00
2023-05-20T02:40:52.509Z,0.00
2023-05-20T02:41:52.586Z,0.00
2023-05-20T02:42:52.487Z,0.00
2023-05-20T02:43:52.487Z,0.00
2023-05-20T02:44:52.416Z,0.00
2023-05-20T02:45:52.551Z,0.00
2023-05-20T02:46:52.371Z,0.00
2023-05-20T02:47:52.432Z,0.00
2023-05-20T02:48:52.317Z,0.00
2023-05-20T02:49:52.323Z,0.00
2023-05-20T02:50:52.270Z,0.00
2023-05-20T02:51:52.246Z,0.00
2023-05-20T02:52:52.250Z,0.00
2023-05-20T02:53:52.246Z,0.00
2023-05-20T02:54:52.176Z,0.00
2023-05-20T02:55:52.255Z,0.00
2023-05-20T02:56:52.141Z,0.00
2023-05-20T02:57:52.169Z,0.00
2023-05-20T02:58:52.084Z,0.00
2023-05-20T02:59:52.081Z,0.00
2023-05-20T03:00:52.043Z,0.00
2023-05-20T03:01:52.253Z,0.00
2023-05-20T03:02:52.125Z,0.00
2023-05-20T03:03:52.013Z,0.00
2023-05-20T03:04:52.172Z,0.00
2023-05-20T03:05:52.024Z,0.00
2023-05-20T03:06:51.896Z,0.00
2023-05-20T03:07:51.894Z,0.00
2023-05-20T03:08:51.848Z,0.00
2023-05-20T03:09:51.844Z,0.00
2023-05-20T03:10:51.833Z,4.00
2023-05-20T03:11:51.860Z,4.00
2023-05-20T03:12:51.770Z,4.00
2023-05-20T03:13:51.785Z,0.00
2023-05-20T03:14:51.708Z,4.00
2023-05-20T03:15:51.838Z,4.00
2023-05-20T03:16:51.663Z,0.00
2023-05-20T03:17:51.758Z,4.00
2023-05-20T03:18:51.632Z,8.00
2023-05-20T03:19:51.631Z,4.00
2023-05-20T03:20:51.569Z,8.00
2023-05-20T03:21:51.640Z,8.00
2023-05-20T03:22:51.546Z,8.00
2023-05-20T03:23:51.490Z,12.00
2023-05-20T03:24:51.540Z,12.00
2023-05-20T03:25:51.446Z,12.00
2023-05-20T03:26:51.457Z,16.00
2023-05-20T03:27:51.409Z,20.00
2023-05-20T03:28:51.385Z,20.00
2023-05-20T03:29:51.382Z,24.00
2023-05-20T03:30:51.391Z,24.00
2023-05-20T03:31:51.460Z,28.00
2023-05-20T03:32:51.449Z,32.00
2023-05-20T03:33:51.273Z,28.00
2023-05-20T03:34:51.311Z,32.00
2023-05-20T03:35:51.210Z,40.00
2023-05-20T03:36:51.224Z,40.00
2023-05-20T03:37:51.177Z,44.00
2023-05-20T03:38:51.241Z,48.00
2023-05-20T03:39:51.114Z,52.00
2023-05-20T03:40:51.159Z,56.00
2023-05-20T03:41:51.066Z,60.00
2023-05-20T03:42:51.166Z,64.00
2023-05-20T03:43:51.038Z,72.00
2023-05-20T03:44:51.004Z,76.00
2023-05-20T03:45:50.972Z,80.00
2023-05-20T03:46:51.057Z,88.00
2023-05-20T03:47:50.967Z,92.00
2023-05-20T03:48:51.014Z,100.00
2023-05-20T03:49:50.869Z,108.00
2023-05-20T03:50:50.934Z,112.00
2023-05-20T03:51:50.828Z,120.00
2023-05-20T03:52:50.851Z,124.00
2023-05-20T03:53:50.779Z,132.00
2023-05-20T03:54:50.852Z,136.00
2023-05-20T03:55:50.744Z,140.00
2023-05-20T03:56:50.765Z,148.00
2023-05-20T03:57:50.693Z,152.00
2023-05-20T03:58:50.785Z,156.00
2023-05-20T03:59:50.636Z,160.00
2023-05-20T04:00:50.613Z,168.00
2023-05-20T04:01:50.651Z,172.00
2023-05-20T04:02:50.723Z,176.00
2023-05-20T04:03:50.750Z,184.00
2023-05-20T04:04:50.618Z,192.00
2023-05-20T04:05:50.513Z,196.00
2023-05-20T04:06:50.529Z,200.00
2023-05-20T04:07:50.467Z,212.00
2023-05-20T04:08:50.550Z,216.00
2023-05-20T04:09:50.399Z,224.00
2023-05-20T04:10:50.485Z,232.00
2023-05-20T04:11:50.353Z,236.00
2023-05-20T04:12:50.370Z,244.00
2023-05-20T04:13:50.301Z,256.00
2023-05-20T04:14:50.375Z,260.00
2023-05-20T04:15:50.261Z,264.00
2023-05-20T04:16:50.311Z,272.00
2023-05-20T04:17:50.329Z,284.00
2023-05-20T04:18:50.194Z,292.00
2023-05-20T04:19:50.196Z,296.00
2023-05-20T04:20:50.155Z,304.00
2023-05-20T04:21:50.125Z,312.00
2023-05-20T04:22:50.109Z,320.00
2023-05-20T04:23:50.155Z,328.00
2023-05-20T04:24:50.047Z,336.00
2023-05-20T04:25:50.065Z,344.00
2023-05-20T04:26:50.027Z,352.00
2023-05-20T04:27:49.981Z,360.00
2023-05-20T04:28:49.995Z,368.00
2023-05-20T04:29:49.921Z,376.00
2023-05-20T04:30:49.977Z,384.00
2023-05-20T04:31:49.925Z,392.00
2023-05-20T04:32:49.917Z,400.00
2023-05-20T04:33:49.821Z,412.00
2023-05-20T04:34:49.909Z,420.00
2023-05-20T04:35:49.782Z,428.00
2023-05-20T04:36:49.828Z,440.00
2023-05-20T04:37:49.835Z,448.00
2023-05-20T04:38:49.734Z,460.00
2023-05-20T04:39:49.744Z,468.00
2023-05-20T04:40:49.657Z,480.00
2023-05-20T04:41:49.658Z,488.00
2023-05-20T04:42:49.636Z,504.00
2023-05-20T04:43:49.677Z,512.00
2023-05-20T04:44:49.583Z,528.00
2023-05-20T04:45:49.612Z,536.00
2023-05-20T04:46:49.516Z,548.00
2023-05-20T04:47:49.622Z,560.00
2023-05-20T04:48:49.502Z,576.00
2023-05-20T04:49:49.512Z,584.00
2023-05-20T04:50:49.416Z,596.00
2023-05-20T04:51:49.414Z,608.00
2023-05-20T04:52:49.389Z,624.00
2023-05-20T04:53:49.372Z,640.00
2023-05-20T04:54:49.333Z,652.00
2023-05-20T04:55:49.338Z,664.00
2023-05-20T04:56:49.279Z,676.00
2023-05-20T04:57:49.367Z,688.00
2023-05-20T04:58:49.244Z,696.00
2023-05-20T04:59:49.265Z,700.00
2023-05-20T05:00:49.197Z,708.00
2023-05-20T05:01:49.223Z,712.00
2023-05-20T05:02:49.189Z,720.00
2023-05-20T05:03:49.192Z,732.00
2023-05-20T05:04:49.116Z,732.00
2023-05-20T05:05:49.112Z,740.00
2023-05-20T05:06:49.046Z,748.00
2023-05-20T05:07:49.121Z,752.00
2023-05-20T05:08:49.000Z,764.00
2023-05-20T05:09:48.970Z,776.00
2023-05-20T05:10:48.950Z,788.00
2023-05-20T05:11:48.953Z,792.00
2023-05-20T05:12:48.911Z,800.00
2023-05-20T05:13:48.978Z,808.00
2023-05-20T05:14:48.870Z,816.00
2023-05-20T05:15:48.914Z,820.00
2023-05-20T05:16:48.807Z,832.00
2023-05-20T05:17:48.951Z,840.00
2023-05-20T05:18:48.798Z,844.00
2023-05-20T05:19:48.802Z,852.00
2023-05-20T05:20:48.716Z,860.00
2023-05-20T05:21:48.728Z,872.00
2023-05-20T05:22:48.683Z,876.00
2023-05-20T05:23:48.738Z,880.00
2023-05-20T05:24:48.625Z,892.00
2023-05-20T05:25:48.598Z,900.00
2023-05-20T05:26:48.573Z,904.00
2023-05-20T05:27:48.656Z,920.00
2023-05-20T05:28:48.522Z,928.00
2023-05-20T05:29:48.565Z,940.00
2023-05-20T05:30:48.599Z,948.00
2023-05-20T05:31:48.470Z,956.00
2023-05-20T05:32:48.568Z,968.00
2023-05-20T05:33:48.409Z,980.00
2023-05-20T05:34:48.400Z,988.00
2023-05-20T05:35:48.354Z,996.00
2023-05-20T05:36:48.342Z,1004.00
2023-05-20T05:37:48.430Z,1016.00
2023-05-20T05:38:48.285Z,1024.00
2023-05-20T05:39:48.334Z,1036.00
2023-05-20T05:40:48.249Z,1044.00
2023-05-20T05:41:48.241Z,1052.00
2023-05-20T05:42:48.268Z,1060.00
2023-05-20T05:43:48.171Z,1068.00
2023-05-20T05:44:48.164Z,1076.00
2023-05-20T05:45:48.137Z,1076.00
2023-05-20T05:46:48.133Z,1072.00
2023-05-20T05:47:48.141Z,1068.00
2023-05-20T05:48:48.096Z,1068.00
2023-05-20T05:49:48.028Z,1072.00
2023-05-20T05:50:48.120Z,1080.00
2023-05-20T05:51:47.980Z,1084.00
2023-05-20T05:52:48.019Z,1088.00
2023-05-20T05:53:47.933Z,1096.00
2023-05-20T05:54:47.933Z,1096.00
2023-05-20T05:55:47.883Z,1108.00
2023-05-20T05:56:47.941Z,1112.00
2023-05-20T05:57:47.912Z,1116.00
2023-05-20T05:58:47.867Z,1124.00
2023-05-20T05:59:47.808Z,1128.00
2023-05-20T06:00:47.920Z,1136.00
2023-05-20T06:01:47.804Z,1140.00
2023-05-20T06:02:47.908Z,1148.00
2023-05-20T06:03:47.797Z,1156.00
2023-05-20T06:04:47.708Z,1160.00
2023-05-20T06:05:47.654Z,1168.00
2023-05-20T06:06:47.707Z,1172.00
2023-05-20T06:07:47.726Z,1180.00
2023-05-20T06:08:47.581Z,1184.00
2023-05-20T06:09:47.640Z,1192.00
2023-05-20T06:10:47.552Z,1200.00
2023-05-20T06:11:47.540Z,1200.00
2023-05-20T06:12:47.518Z,1208.00
2023-05-20T06:13:47.569Z,1212.00
2023-05-20T06:14:47.445Z,1220.00
2023-05-20T06:15:47.469Z,1228.00
2023-05-20T06:16:47.440Z,1236.00
2023-05-20T06:17:47.552Z,1240.00
2023-05-20T06:18:47.419Z,1248.00
2023-05-20T06:19:47.401Z,1252.00
2023-05-20T06:20:47.301Z,1260.00
2023-05-20T06:21:47.301Z,1264.00
2023-05-20T06:22:47.285Z,1268.00
2023-05-20T06:23:47.245Z,1272.00
2023-05-20T06:24:47.213Z,1276.00
2023-05-20T06:25:47.250Z,1284.00
2023-05-20T06:26:47.170Z,1288.00
2023-05-20T06:27:47.243Z,1296.00
2023-05-20T06:28:47.133Z,1300.00
2023-05-20T06:29:47.183Z,1300.00
2023-05-20T06:30:47.127Z,1308.00
2023-05-20T06:31:47.089Z,1312.00
2023-05-20T06:32:47.075Z,1320.00
2023-05-20T06:33:47.093Z,1324.00
2023-05-20T06:34:46.997Z,1328.00
2023-05-20T06:35:47.000Z,1336.00
2023-05-20T06:36:46.939Z,1340.00
2023-05-20T06:37:47.056Z,1348.00
2023-05-20T06:38:46.912Z,1356.00
2023-05-20T06:39:46.874Z,1364.00
2023-05-20T06:40:46.937Z,1372.00
2023-05-20T06:41:46.849Z,1376.00
2023-05-20T06:42:46.884Z,1388.00
2023-05-20T06:43:46.794Z,1396.00
2023-05-20T06:44:46.776Z,1400.00
2023-05-20T06:45:46.751Z,1408.00
2023-05-20T06:46:46.948Z,1416.00
2023-05-20T06:47:46.729Z,1428.00
2023-05-20T06:48:46.836Z,1444.00
2023-05-20T06:49:47.644Z,1452.00
2023-05-20T06:50:46.631Z,1464.00
2023-05-20T06:51:46.649Z,1480.00
2023-05-20T06:52:46.604Z,1464.00
2023-05-20T06:53:46.651Z,1484.00
2023-05-20T06:54:46.538Z,1512.00
2023-05-20T06:55:46.526Z,1548.00
2023-05-20T06:56:46.507Z,1588.00
2023-05-20T06:57:46.577Z,1620.00
2023-05-20T06:58:46.447Z,1664.00
2023-05-20T06:59:46.504Z,1692.00
2023-05-20T07:00:46.428Z,1716.00
2023-05-20T07:01:46.428Z,1732.00
2023-05-20T07:02:46.466Z,1760.00
2023-05-20T07:03:46.490Z,1792.00
2023-05-20T07:04:46.313Z,1832.00
2023-05-20T07:05:46.336Z,1872.00
2023-05-20T07:06:46.292Z,1920.00
2023-05-20T07:07:46.349Z,1976.00
2023-05-20T07:08:46.227Z,2032.00
2023-05-20T07:09:46.272Z,2064.00
2023-05-20T07:10:46.185Z,2076.00
2023-05-20T07:11:46.167Z,2072.00
2023-05-20T07:12:46.164Z,2028.00
2023-05-20T07:13:46.309Z,1992.00
2023-05-20T07:14:46.092Z,1956.00
2023-05-20T07:15:46.243Z,1932.00
2023-05-20T07:16:46.049Z,1916.00
2023-05-20T07:17:46.182Z,1880.00
2023-05-20T07:18:46.075Z,1848.00
2023-05-20T07:19:46.120Z,1812.00
2023-05-20T07:20:45.982Z,1808.00
2023-05-20T07:21:46.050Z,1844.00
2023-05-20T07:22:45.930Z,1864.00
2023-05-20T07:23:46.063Z,1876.00
2023-05-20T07:24:45.876Z,1892.00
2023-05-20T07:25:45.963Z,1896.00
2023-05-20T07:26:45.854Z,1864.00
2023-05-20T07:27:45.828Z,1872.00
2023-05-20T07:28:45.792Z,1960.00
2023-05-20T07:29:45.889Z,1900.00
2023-05-20T07:30:45.749Z,2000.00
2023-05-20T07:31:45.873Z,1920.00
2023-05-20T07:32:45.773Z,1924.00
2023-05-20T07:33:45.811Z,1952.00
2023-05-20T07:34:45.662Z,1960.00
2023-05-20T07:35:45.765Z,1964.00
2023-05-20T07:36:45.630Z,1984.00
2023-05-20T07:37:45.615Z,2016.00
2023-05-20T07:38:56.993Z,2024.00
2023-05-20T07:39:45.565Z,2052.00
2023-05-20T07:40:45.638Z,2120.00
2023-05-20T07:41:45.525Z,2180.00
2023-05-20T07:42:45.578Z,2276.00
2023-05-20T07:43:45.481Z,2360.00
2023-05-20T07:44:45.592Z,2404.00
2023-05-20T07:45:45.554Z,2464.00
2023-05-20T07:46:45.561Z,2384.00
2023-05-20T07:47:45.469Z,2320.00
2023-05-20T07:48:45.411Z,2236.00
2023-05-20T07:49:45.350Z,2176.00
2023-05-20T07:50:45.425Z,2152.00
2023-05-20T07:51:45.305Z,2192.00
2023-05-20T07:52:56.161Z,2292.00
2023-05-20T07:53:45.273Z,2388.00
2023-05-20T07:54:45.346Z,2508.00
2023-05-20T07:55:45.222Z,2644.00
2023-05-20T07:56:45.265Z,2740.00
2023-05-20T07:57:45.206Z,2856.00
2023-05-20T07:58:45.165Z,2952.00
2023-05-20T07:59:45.226Z,2960.00
2023-05-20T08:00:45.119Z,2980.00
2023-05-20T08:01:45.201Z,2980.00
2023-05-20T08:02:45.225Z,2984.00
2023-05-20T08:03:45.119Z,2972.00
2023-05-20T08:04:45.123Z,2912.00
2023-05-20T08:05:45.022Z,2852.00
2023-05-20T08:06:45.028Z,2792.00
2023-05-20T08:07:44.998Z,2576.00
2023-05-20T08:08:44.952Z,2560.00
2023-05-20T08:09:45.051Z,2432.00
2023-05-20T08:10:44.910Z,2516.00
2023-05-20T08:11:47.213Z,2588.00
2023-05-20T08:12:44.891Z,2632.00
2023-05-20T08:13:44.884Z,2652.00
2023-05-20T08:14:44.880Z,2708.00
2023-05-20T08:15:44.820Z,2800.00
2023-05-20T08:16:45.010Z,2924.00
2023-05-20T08:17:44.807Z,2944.00
2023-05-20T08:18:44.800Z,2984.00
2023-05-20T08:19:44.727Z,3032.00
2023-05-20T08:20:44.835Z,3032.00
2023-05-20T08:21:44.686Z,3068.00
2023-05-20T08:22:44.730Z,3072.00
2023-05-20T08:23:44.657Z,3100.00
2023-05-20T08:24:44.646Z,3132.00
2023-05-20T08:25:44.620Z,3152.00
2023-05-20T08:26:44.664Z,3176.00
2023-05-20T08:27:44.583Z,3220.00
2023-05-20T08:28:44.588Z,3252.00
2023-05-20T08:29:44.529Z,3260.00
2023-05-20T08:30:44.610Z,3232.00
2023-05-20T08:31:44.546Z,3204.00
2023-05-20T08:32:44.544Z,3208.00
2023-05-20T08:33:44.471Z,3236.00
2023-05-20T08:34:44.425Z,3264.00
2023-05-20T08:35:44.531Z,3300.00
2023-05-20T08:36:44.394Z,3308.00
2023-05-20T08:37:44.438Z,3340.00
2023-05-20T08:38:44.346Z,3388.00
2023-05-20T08:39:44.329Z,3444.00
2023-05-20T08:40:44.382Z,3496.00
2023-05-20T08:41:44.291Z,3524.00
2023-05-20T08:42:44.379Z,3556.00
2023-05-20T08:43:44.252Z,3552.00
2023-05-20T08:44:44.230Z,3520.00
2023-05-20T08:45:44.282Z,3500.00
2023-05-20T08:46:44.273Z,3500.00
2023-05-20T08:47:44.366Z,3524.00
2023-05-20T08:48:44.167Z,3576.00
2023-05-20T08:49:44.141Z,3632.00
2023-05-20T08:50:44.221Z,3704.00
2023-05-20T08:51:44.093Z,3764.00
2023-05-20T08:52:44.129Z,3856.00
2023-05-20T08:53:44.063Z,3956.00
2023-05-20T08:54:44.041Z,4044.00
2023-05-20T08:55:44.060Z,4108.00
2023-05-20T08:56:44.002Z,4184.00
2023-05-20T08:57:44.084Z,4248.00
2023-05-20T08:58:43.969Z,4292.00
2023-05-20T08:59:43.946Z,4300.00
2023-05-20T09:00:44.001Z,4296.00
2023-05-20T09:01:43.939Z,4292.00
2023-05-20T09:02:44.031Z,4288.00
2023-05-20T09:03:43.875Z,4268.00
2023-05-20T09:04:43.887Z,4240.00
2023-05-20T09:05:43.923Z,4212.00
2023-05-20T09:06:43.834Z,4192.00
2023-05-20T09:07:43.833Z,4208.00
2023-05-20T09:08:43.772Z,4232.00
2023-05-20T09:09:43.754Z,4272.00
2023-05-20T09:10:43.756Z,4332.00
2023-05-20T09:11:43.769Z,4388.00
2023-05-20T09:12:43.791Z,4440.00
2023-05-20T09:13:43.682Z,4488.00
2023-05-20T09:14:43.658Z,4532.00
2023-05-20T09:15:43.685Z,4572.00
2023-05-20T09:16:43.776Z,4628.00
2023-05-20T09:17:43.718Z,4688.00
2023-05-20T09:18:43.648Z,4728.00
2023-05-20T09:19:43.566Z,4748.00
2023-05-20T09:20:43.650Z,4780.00
2023-05-20T09:21:43.529Z,4792.00
2023-05-20T09:22:43.628Z,4828.00
2023-05-20T09:23:43.489Z,4888.00
2023-05-20T09:24:43.472Z,4988.00
2023-05-20T09:25:43.566Z,4968.00
2023-05-20T09:26:43.463Z,5108.00
2023-05-20T09:27:43.464Z,5032.00
2023-05-20T09:28:43.397Z,5012.00
2023-05-20T09:29:43.394Z,4932.00
2023-05-20T09:30:45.777Z,4868.00
2023-05-20T09:31:43.380Z,4856.00
2023-05-20T09:32:43.415Z,4988.00
2023-05-20T09:33:43.310Z,4996.00
2023-05-20T09:34:43.319Z,5052.00
2023-05-20T09:35:43.399Z,4988.00
2023-05-20T09:36:43.268Z,4924.00
2023-05-20T09:37:43.325Z,4968.00
2023-05-20T09:38:43.225Z,4928.00
2023-05-20T09:39:43.246Z,5036.00
2023-05-20T09:40:43.251Z,5280.00
2023-05-20T09:41:43.158Z,5344.00
2023-05-20T09:42:43.259Z,5168.00
2023-05-20T09:43:43.162Z,5248.00
2023-05-20T09:44:43.107Z,5448.00
2023-05-20T09:45:43.175Z,5248.00
2023-05-20T09:46:43.190Z,5200.00
2023-05-20T09:47:43.087Z,5196.00
2023-05-20T09:48:43.099Z,5064.00
2023-05-20T09:49:43.124Z,4968.00
2023-05-20T09:50:43.009Z,4844.00
2023-05-20T09:51:43.023Z,4812.00
2023-05-20T09:52:42.979Z,4780.00
2023-05-20T09:53:43.061Z,4724.00
2023-05-20T09:54:43.046Z,4660.00
2023-05-20T09:55:42.916Z,4540.00
2023-05-20T09:56:42.957Z,4536.00
2023-05-20T09:57:42.892Z,4536.00
2023-05-20T09:58:42.991Z,4560.00
2023-05-20T09:59:42.901Z,4596.00
2023-05-20T10:00:42.836Z,4656.00
2023-05-20T10:01:42.930Z,4800.00
2023-05-20T10:02:42.851Z,4692.00
2023-05-20T10:03:44.268Z,4688.00
2023-05-20T10:04:42.776Z,5056.00
2023-05-20T10:05:42.812Z,5104.00
2023-05-20T10:06:42.729Z,5196.00
2023-05-20T10:07:42.850Z,5280.00
2023-05-20T10:08:42.692Z,5472.00
2023-05-20T10:09:42.743Z,5596.00
2023-05-20T10:10:42.665Z,6016.00
2023-05-20T10:11:44.188Z,5264.00
2023-05-20T10:12:42.639Z,4888.00
2023-05-20T10:13:42.715Z,5352.00
2023-05-20T10:14:42.597Z,5076.00
2023-05-20T10:15:42.623Z,5152.00
2023-05-20T10:16:42.560Z,5068.00
2023-05-20T10:17:42.612Z,5060.00
2023-05-20T10:18:42.557Z,4892.00
2023-05-20T10:19:42.614Z,4848.00
2023-05-20T10:20:42.495Z,5120.00
2023-05-20T10:21:42.478Z,5272.00
2023-05-20T10:22:42.537Z,5424.00
2023-05-20T10:23:42.461Z,5428.00
2023-05-20T10:24:42.567Z,5576.00
2023-05-20T10:25:42.419Z,5456.00
2023-05-20T10:26:42.455Z,5432.00
2023-05-20T10:27:42.394Z,5456.00
2023-05-20T10:28:42.479Z,5416.00
2023-05-20T10:29:42.354Z,5444.00
2023-05-20T10:30:44.366Z,5620.00
2023-05-20T10:31:42.313Z,5720.00
2023-05-20T10:32:42.389Z,5872.00
2023-05-20T10:33:42.387Z,5956.00
2023-05-20T10:34:42.288Z,5920.00
2023-05-20T10:35:42.315Z,6076.00
2023-05-20T10:36:42.820Z,6280.00
2023-05-20T10:37:42.252Z,6136.00
2023-05-20T10:38:42.202Z,6004.00
2023-05-20T10:39:42.255Z,6048.00
2023-05-20T10:40:42.193Z,6076.00
2023-05-20T10:41:42.258Z,6132.00
2023-05-20T10:42:42.153Z,6260.00
2023-05-20T10:43:42.146Z,6092.00
2023-05-20T10:44:42.171Z,6088.00
2023-05-20T10:45:42.087Z,5984.00
2023-05-20T10:47:00.010Z,5964.00
2023-05-20T10:47:42.146Z,6032.00
2023-05-20T10:48:42.147Z,6020.00
2023-05-20T10:49:42.029Z,5928.00
2023-05-20T10:50:42.119Z,5992.00
2023-05-20T10:51:42.006Z,6028.00
2023-05-20T10:52:42.036Z,6240.00
2023-05-20T10:53:41.968Z,6340.00
2023-05-20T10:54:41.952Z,6292.00
2023-05-20T10:55:42.065Z,6384.00
2023-05-20T10:56:41.914Z,6432.00
2023-05-20T10:57:41.959Z,6476.00
2023-05-20T10:58:41.886Z,6536.00
2023-05-20T10:59:41.881Z,6340.00
2023-05-20T11:00:41.901Z,6336.00
2023-05-20T11:01:41.984Z,6096.00
2023-05-20T11:02:41.884Z,6020.00
2023-05-20T11:03:41.992Z,6044.00
2023-05-20T11:04:41.795Z,6092.00
2023-05-20T11:05:41.772Z,6088.00
2023-05-20T11:06:41.818Z,6144.00
2023-05-20T11:07:41.765Z,6084.00
2023-05-20T11:08:41.856Z,6088.00
2023-05-20T11:09:41.718Z,6280.00
2023-05-20T11:10:41.700Z,5984.00
2023-05-20T11:11:41.694Z,5864.00
2023-05-20T11:12:41.802Z,6108.00
2023-05-20T11:13:41.670Z,6260.00
2023-05-20T11:14:41.673Z,6216.00
2023-05-20T11:15:41.622Z,5964.00
2023-05-20T11:16:41.730Z,6196.00
2023-05-20T11:17:41.693Z,6592.00
2023-05-20T11:18:41.658Z,6696.00
2023-05-20T11:19:41.560Z,6504.00
2023-05-20T11:20:41.616Z,6288.00
2023-05-20T11:21:41.535Z,6128.00
2023-05-20T11:22:41.548Z,6224.00
2023-05-20T11:23:41.530Z,6356.00
2023-05-20T11:24:41.490Z,6300.00
2023-05-20T11:25:41.565Z,6268.00
2023-05-20T11:26:41.575Z,6160.00
2023-05-20T11:27:41.451Z,6184.00
2023-05-20T11:28:41.469Z,6016.00
2023-05-20T11:29:41.410Z,5968.00
2023-05-20T11:30:41.501Z,6092.00
2023-05-20T11:31:41.399Z,6112.00
2023-05-20T11:32:41.439Z,6120.00
2023-05-20T11:33:41.350Z,6332.00
2023-05-20T11:34:41.417Z,6780.00
2023-05-20T11:35:41.316Z,6648.00
2023-05-20T11:36:41.312Z,6588.00
2023-05-20T11:37:41.301Z,6364.00
2023-05-20T11:38:41.347Z,6172.00
2023-05-20T11:39:41.274Z,6340.00
2023-05-20T11:40:49.780Z,6004.00
2023-05-20T11:41:41.224Z,5972.00
2023-05-20T11:42:41.237Z,6052.00
2023-05-20T11:43:41.192Z,6308.00
2023-05-20T11:44:41.284Z,6784.00
2023-05-20T11:45:41.189Z,6932.00
2023-05-20T11:46:42.350Z,6252.00
2023-05-20T11:47:41.186Z,6376.00
2023-05-20T11:48:41.126Z,6496.00
2023-05-20T11:49:41.210Z,6548.00
2023-05-20T11:50:41.092Z,5564.00
2023-05-20T11:51:41.133Z,6508.00
2023-05-20T11:52:41.076Z,6080.00
2023-05-20T11:53:41.068Z,5496.00
2023-05-20T11:54:41.043Z,5524.00
2023-05-20T11:55:41.049Z,6252.00
2023-05-20T11:56:41.014Z,7116.00
2023-05-20T11:57:41.060Z,6584.00
2023-05-20T11:58:40.979Z,6684.00
2023-05-20T11:59:41.094Z,7072.00
2023-05-20T12:00:51.296Z,7104.00
2023-05-20T12:01:40.942Z,7096.00
2023-05-20T12:02:41.051Z,7104.00
2023-05-20T12:03:41.192Z,7200.00
2023-05-20T12:04:40.930Z,7144.00
2023-05-20T12:05:40.913Z,7248.00
2023-05-20T12:06:40.886Z,7392.00
2023-05-20T12:07:40.930Z,7000.00
2023-05-20T12:08:40.840Z,6592.00
2023-05-20T12:09:40.836Z,6628.00
2023-05-20T12:10:40.822Z,7548.00
2023-05-20T12:11:40.881Z,6996.00
2023-05-20T12:12:40.800Z,7232.00
2023-05-20T12:13:40.889Z,7644.00
2023-05-20T12:14:40.902Z,6992.00
2023-05-20T12:15:40.825Z,6908.00
2023-05-20T12:16:40.746Z,7132.00
2023-05-20T12:17:40.818Z,6844.00
2023-05-20T12:18:40.782Z,6668.00
2023-05-20T12:19:42.025Z,6008.00
2023-05-20T12:20:40.695Z,5948.00
2023-05-20T12:21:40.730Z,5916.00
2023-05-20T12:22:40.669Z,5952.00
2023-05-20T12:23:40.738Z,5992.00
2023-05-20T12:24:40.627Z,5816.00
2023-05-20T12:25:40.657Z,5576.00
2023-05-20T12:26:40.615Z,5808.00
2023-05-20T12:27:40.662Z,5820.00
2023-05-20T12:28:40.581Z,5712.00
2023-05-20T12:29:40.577Z,6212.00